Time;durP1;ratioP1;P1;durP2;ratioP2;P2;SDS_P1;SDS_P2;PMS_P1;PMS_P2;Temp;Humidity;BMP_temperature;BMP_pressure;BME280_temperature;BME280_humidity;BME280_pressure;Samples;Min_cycle;Max_cycle;Signal;HPM_P1;HPM_P2
2022/09/07 00:00:19;;;;;;;32.90;15.23;;;19.60;99.90;;;;;;4961440;29;20562;-72
2022/09/07 00:02:44;;;;;;;39.83;15.67;;;19.60;99.90;;;;;;4943701;29;20051;-71
2022/09/07 00:05:10;;;;;;;33.90;15.23;;;19.60;99.90;;;;;;4960869;29;20043;-72
2022/09/07 00:07:35;;;;;;;35.23;15.93;;;19.50;99.90;;;;;;4960704;28;20473;-71
2022/09/07 00:10:01;;;;;;;28.53;15.20;;;19.50;99.90;;;;;;4961989;28;20055;-72
2022/09/07 00:12:28;;;;;;;;;;;19.50;99.90;;;;;;4943463;29;20054;-71
2022/09/07 00:14:54;;;;;;;36.17;17.42;;;19.50;99.90;;;;;;4960629;29;19922;-72
2022/09/07 00:17:19;;;;;;;30.13;16.33;;;19.40;99.90;;;;;;4960362;29;20051;-72
2022/09/07 00:19:45;;;;;;;37.97;17.63;;;19.40;99.90;;;;;;4960875;28;20119;-72
2022/09/07 00:22:11;;;;;;;34.47;17.70;;;19.40;99.90;;;;;;4960418;29;20569;-72
2022/09/07 00:24:36;;;;;;;33.43;17.90;;;19.30;99.90;;;;;;4943429;29;20102;-71
2022/09/07 00:27:02;;;;;;;32.60;17.40;;;19.30;99.90;;;;;;4960799;28;20524;-73
2022/09/07 00:29:28;;;;;;;41.23;18.33;;;19.20;99.90;;;;;;4960500;29;20047;-71
2022/09/07 00:31:53;;;;;;;36.10;16.53;;;19.10;99.90;;;;;;4943378;29;20043;-72
2022/09/07 00:34:19;;;;;;;38.70;19.10;;;19.20;99.90;;;;;;4960427;29;20090;-72
2022/09/07 00:36:45;;;;;;;43.60;19.73;;;19.10;99.90;;;;;;4943610;29;20040;-71
2022/09/07 00:39:10;;;;;;;40.83;21.03;;;19.10;99.90;;;;;;4960488;29;20046;-73
2022/09/07 00:41:36;;;;;;;63.50;24.53;;;18.90;99.90;;;;;;4960335;28;20424;-74
2022/09/07 00:44:39;;;;;;;51.10;22.87;;;18.80;99.90;;;;;;4960203;28;20078;-71
2022/09/07 00:47:27;;;;;;;78.18;28.67;;;18.70;99.90;;;;;;4927559;29;20043;-73
2022/09/07 00:49:59;;;;;;;64.03;26.17;;;18.50;99.90;;;;;;4960580;28;20047;-75
2022/09/07 00:52:27;;;;;;;61.47;27.98;;;18.40;99.90;;;;;;4960570;29;20233;-72
2022/09/07 00:54:57;;;;;;;62.40;28.63;;;18.20;99.90;;;;;;4943237;29;20416;-74
2022/09/07 00:57:26;;;;;;;60.88;28.67;;;18.20;99.90;;;;;;4960115;28;20090;-74
2022/09/07 00:59:53;;;;;;;61.58;29.67;;;18.10;99.90;;;;;;4943003;29;20140;-72
2022/09/07 01:02:19;;;;;;;65.90;29.90;;;18.00;99.90;;;;;;4960017;28;20113;-72
2022/09/07 01:04:49;;;;;;;66.10;30.15;;;18.00;99.90;;;;;;4960036;28;20055;-72
2022/09/07 01:07:15;;;;;;;67.00;31.85;;;18.00;99.90;;;;;;4942609;29;20488;-71
2022/09/07 01:09:41;;;;;;;63.07;31.30;;;17.90;99.90;;;;;;4956666;28;20094;-72
2022/09/07 01:12:08;;;;;;;71.78;32.53;;;17.80;99.90;;;;;;4939201;29;20063;-71
2022/09/07 01:14:40;;;;;;;75.40;34.83;;;17.80;99.90;;;;;;4956814;29;20221;-70
2022/09/07 01:17:38;;;;;;;77.45;35.15;;;17.70;99.90;;;;;;4940279;29;20071;-71
2022/09/07 01:20:04;;;;;;;73.95;33.60;;;17.50;99.90;;;;;;4939738;29;20086;-71
2022/09/07 01:22:51;;;;;;;79.33;34.87;;;17.40;99.90;;;;;;4940490;29;20132;-73
2022/09/07 01:25:43;;;;;;;77.65;35.30;;;17.30;99.90;;;;;;4958662;29;20055;-73
2022/09/07 01:28:23;;;;;;;74.28;35.20;;;17.20;99.90;;;;;;4957041;29;20527;-72
2022/09/07 01:31:06;;;;;;;76.13;33.80;;;17.10;99.90;;;;;;4956635;29;20043;-73
2022/09/07 01:33:55;;;;;;;88.60;37.90;;;17.00;99.90;;;;;;4956918;29;20500;-72
2022/09/07 01:36:30;;;;;;;80.70;35.65;;;17.10;99.90;;;;;;4939127;29;20047;-72
2022/09/07 01:39:03;;;;;;;78.50;38.83;;;17.00;99.90;;;;;;4939676;29;20147;-71
2022/09/07 01:41:43;;;;;;;93.40;40.33;;;17.00;99.90;;;;;;4956431;29;20052;-70
2022/09/07 01:44:17;;;;;;;88.32;41.13;;;17.00;99.90;;;;;;4957006;29;20051;-71
2022/09/07 01:46:51;;;;;;;91.00;40.85;;;17.10;99.90;;;;;;4956221;29;20051;-71
2022/09/07 01:49:22;;;;;;;92.38;44.00;;;17.10;99.90;;;;;;4956620;28;20058;-69
2022/09/07 01:51:55;;;;;;;88.65;40.90;;;17.10;99.90;;;;;;4956076;29;20055;-73
2022/09/07 01:54:27;;;;;;;94.22;45.97;;;17.00;99.90;;;;;;4939292;29;20397;-70
2022/09/07 01:56:59;;;;;;;89.22;40.95;;;17.00;99.90;;;;;;4959739;29;20055;-70
2022/09/07 01:59:28;;;;;;;105.22;48.00;;;17.00;99.90;;;;;;4942674;29;20105;-70
2022/09/07 02:02:02;;;;;;;97.68;43.75;;;17.00;99.90;;;;;;4957425;29;20051;-69
2022/09/07 02:04:38;;;;;;;97.00;46.50;;;17.00;99.90;;;;;;4956677;29;20051;-70
2022/09/07 02:07:04;;;;;;;;;;;17.00;99.90;;;;;;4956421;29;20061;-70
2022/09/07 02:09:41;;;;;;;81.73;39.17;;;17.00;99.90;;;;;;4956126;29;20008;-72
2022/09/07 02:12:18;;;;;;;87.82;41.08;;;17.00;99.90;;;;;;4956214;29;20110;-70
2022/09/07 02:14:50;;;;;;;78.50;40.33;;;17.00;99.90;;;;;;4956283;29;20058;-70
2022/09/07 02:17:25;;;;;;;90.22;42.40;;;17.00;99.90;;;;;;4938844;29;20065;-71
2022/09/07 02:20:02;;;;;;;89.78;43.88;;;17.00;99.90;;;;;;4956179;28;20057;-73
2022/09/07 02:22:34;;;;;;;81.88;42.33;;;17.00;99.90;;;;;;4955960;29;20054;-71
2022/09/07 02:25:03;;;;;;;96.95;46.10;;;17.00;99.90;;;;;;4955839;29;20098;-70
2022/09/07 02:27:45;;;;;;;93.80;46.08;;;16.90;99.90;;;;;;4954990;29;20118;-72
2022/09/07 02:30:12;;;;;;;90.95;44.08;;;17.00;99.90;;;;;;4923040;29;20062;-72
2022/09/07 02:32:38;;;;;;;87.38;43.65;;;16.90;99.90;;;;;;4938288;29;20364;-73
2022/09/07 02:35:05;;;;;;;84.43;42.10;;;16.90;99.90;;;;;;4938683;29;20050;-73
2022/09/07 02:37:31;;;;;;;;;;;16.90;99.90;;;;;;4955564;29;20070;-73
2022/09/07 02:39:59;;;;;;;89.40;41.55;;;16.90;99.90;;;;;;4956250;29;20361;-73
2022/09/07 02:42:28;;;;;;;86.30;40.83;;;16.90;99.90;;;;;;4922908;29;20065;-73
2022/09/07 02:44:53;;;;;;;91.20;41.53;;;16.90;99.90;;;;;;4939066;29;20431;-74
2022/09/07 02:47:28;;;;;;;89.30;42.03;;;16.90;99.90;;;;;;4922445;29;20063;-87
2022/09/07 02:50:14;;;;;;;94.82;42.10;;;16.90;99.90;;;;;;4938080;29;20138;-74
2022/09/07 02:52:46;;;;;;;83.45;40.58;;;16.90;99.90;;;;;;4938267;29;20102;-72
2022/09/07 02:55:33;;;;;;;81.47;40.25;;;16.90;99.90;;;;;;4956003;29;20090;-74
2022/09/07 02:58:40;;;;;;;77.35;39.00;;;16.90;99.90;;;;;;4922496;29;20086;-73
2022/09/07 03:01:34;;;;;;;81.70;38.03;;;16.90;99.90;;;;;;4942392;29;20146;-75
2022/09/07 03:04:12;;;;;;;75.68;37.08;;;16.90;99.90;;;;;;4937641;29;20069;-75
2022/09/07 03:06:44;;;;;;;78.90;38.38;;;16.90;99.90;;;;;;4937646;29;20047;-73
2022/09/07 03:09:16;;;;;;;79.97;39.40;;;16.80;99.90;;;;;;4938291;29;20055;-77
2022/09/07 03:11:42;;;;;;;76.28;37.40;;;16.80;99.90;;;;;;4955413;29;20115;-73
2022/09/07 03:14:19;;;;;;;75.93;36.83;;;16.90;99.90;;;;;;4922111;29;20051;-73
2022/09/07 03:16:48;;;;;;;78.10;36.10;;;16.90;99.90;;;;;;4954179;28;20391;-73
2022/09/07 03:19:13;;;;;;;84.63;38.50;;;16.80;99.90;;;;;;4938654;29;20141;-73
2022/09/07 03:21:39;;;;;;;72.83;36.43;;;16.80;99.90;;;;;;4937628;29;20531;-73
2022/09/07 03:24:05;;;;;;;74.20;36.55;;;16.80;99.90;;;;;;4937770;29;20138;-73
2022/09/07 03:26:31;;;;;;;74.80;36.90;;;16.80;99.90;;;;;;4922187;29;20047;-72
2022/09/07 03:28:57;;;;;;;88.45;39.60;;;16.80;99.90;;;;;;4955005;29;20283;-72
2022/09/07 03:31:23;;;;;;;86.77;39.83;;;16.80;99.90;;;;;;4937234;29;20051;-73
2022/09/07 03:33:49;;;;;;;88.77;39.57;;;16.80;99.90;;;;;;4956417;29;20047;-73
2022/09/07 03:36:14;;;;;;;82.30;37.43;;;16.80;99.90;;;;;;4958866;29;20057;-73
2022/09/07 03:38:40;;;;;;;71.10;33.97;;;16.80;99.90;;;;;;4959331;29;20083;-73
2022/09/07 03:41:07;;;;;;;78.60;34.07;;;16.70;99.90;;;;;;4945223;29;20118;-73
2022/09/07 03:43:33;;;;;;;66.82;31.05;;;16.80;99.90;;;;;;4962403;29;20047;-74
2022/09/07 03:46:00;;;;;;;67.78;32.63;;;16.80;99.90;;;;;;4942603;29;20120;-73
2022/09/07 03:48:33;;;;;;;72.60;33.65;;;16.80;99.90;;;;;;4958652;29;20058;-84
2022/09/07 03:51:07;;;;;;;69.93;34.47;;;16.80;99.90;;;;;;4955975;29;20416;-74
2022/09/07 03:53:38;;;;;;;77.57;36.42;;;16.80;99.90;;;;;;4937753;29;20130;-74
2022/09/07 03:56:16;;;;;;;77.50;37.60;;;16.70;99.90;;;;;;4922653;29;20078;-73
2022/09/07 03:58:44;;;;;;;78.15;37.30;;;16.70;99.90;;;;;;4955063;28;20062;-73
2022/09/07 04:01:16;;;;;;;78.47;38.63;;;16.70;99.90;;;;;;4937336;29;20516;-73
2022/09/07 04:03:43;;;;;;;81.38;38.28;;;16.70;99.90;;;;;;4937275;29;20083;-73
2022/09/07 04:06:10;;;;;;;78.10;38.30;;;16.70;99.90;;;;;;4954793;29;20055;-73
2022/09/07 04:08:37;;;;;;;84.60;41.45;;;16.70;99.90;;;;;;4954360;29;20135;-73
2022/09/07 04:11:04;;;;;;;85.68;41.47;;;16.80;99.90;;;;;;4936924;29;20154;-73
2022/09/07 04:13:31;;;;;;;84.65;42.50;;;16.80;99.90;;;;;;4937188;29;20063;-73
2022/09/07 04:15:57;;;;;;;82.22;43.50;;;16.70;99.90;;;;;;4938073;29;20062;-76
2022/09/07 04:18:24;;;;;;;83.32;43.20;;;16.70;99.90;;;;;;4938010;29;20055;-73
2022/09/07 04:20:50;;;;;;;85.45;43.70;;;16.70;99.90;;;;;;4937597;29;20103;-73
2022/09/07 04:23:17;;;;;;;88.00;44.37;;;16.70;99.90;;;;;;4937383;29;20094;-73
2022/09/07 04:25:50;;;;;;;86.68;43.97;;;16.70;99.90;;;;;;4954176;29;20129;-72
2022/09/07 04:28:18;;;;;;;76.10;42.90;;;16.80;99.90;;;;;;4954128;29;20055;-73
2022/09/07 04:30:44;;;;;;;82.43;45.58;;;16.80;99.90;;;;;;4921515;29;20138;-73
2022/09/07 04:33:10;;;;;;;82.97;46.50;;;16.80;99.90;;;;;;4954120;29;20134;-78
2022/09/07 04:35:38;;;;;;;82.85;45.22;;;16.70;99.90;;;;;;4954049;29;20110;-74
2022/09/07 04:38:04;;;;;;;89.30;46.45;;;16.80;99.90;;;;;;4937883;29;20062;-74
2022/09/07 04:40:29;;;;;;;91.47;48.50;;;16.80;99.90;;;;;;4921471;29;20051;-74
2022/09/07 04:42:55;;;;;;;92.37;47.80;;;16.80;99.90;;;;;;4937521;29;20054;-74
2022/09/07 04:45:21;;;;;;;88.83;48.40;;;16.80;99.90;;;;;;4925255;29;20054;-73
2022/09/07 04:47:47;;;;;;;92.47;50.40;;;16.80;99.90;;;;;;4940638;29;20113;-74
2022/09/07 04:50:15;;;;;;;90.10;47.88;;;16.80;99.90;;;;;;4957834;29;20051;-74
2022/09/07 04:52:41;;;;;;;95.03;49.42;;;16.70;99.90;;;;;;4940342;29;20047;-74
2022/09/07 04:55:08;;;;;;;100.22;51.30;;;16.70;99.90;;;;;;4957490;29;20055;-73
2022/09/07 04:57:34;;;;;;;94.18;51.65;;;16.60;99.90;;;;;;4957529;28;20365;-73
2022/09/07 05:00:00;;;;;;;91.83;48.63;;;16.60;99.90;;;;;;4957283;29;20055;-73
2022/09/07 05:02:25;;;;;;;104.22;50.13;;;16.50;99.90;;;;;;4940271;29;20053;-74
2022/09/07 05:04:51;;;;;;;104.75;49.67;;;16.60;99.90;;;;;;4957315;29;20043;-74
2022/09/07 05:07:17;;;;;;;102.47;51.00;;;16.60;99.90;;;;;;4924547;29;20078;-75
2022/09/07 05:09:43;;;;;;;92.73;47.13;;;16.70;99.90;;;;;;4957524;29;20062;-74
2022/09/07 05:12:08;;;;;;;102.60;49.63;;;16.70;99.90;;;;;;4923823;29;20227;-75
2022/09/07 05:14:34;;;;;;;95.78;47.92;;;16.80;99.90;;;;;;4940042;29;20058;-75
2022/09/07 05:17:00;;;;;;;94.33;48.73;;;16.80;99.90;;;;;;4956845;29;20125;-81
2022/09/07 05:19:26;;;;;;;103.57;49.27;;;16.80;99.90;;;;;;4939457;29;20051;-75
2022/09/07 05:21:52;;;;;;;91.68;45.75;;;16.80;99.90;;;;;;4940121;29;20054;-74
2022/09/07 05:24:18;;;;;;;99.87;48.97;;;16.80;99.90;;;;;;4939850;29;20051;-74
2022/09/07 05:26:44;;;;;;;100.77;47.70;;;16.90;99.90;;;;;;4939610;29;20079;-75
2022/09/07 05:29:10;;;;;;;97.60;48.53;;;16.80;99.90;;;;;;4956327;29;20093;-75
2022/09/07 05:31:36;;;;;;;108.15;50.28;;;16.90;99.90;;;;;;4939436;29;20046;-75
2022/09/07 05:34:01;;;;;;;94.83;47.00;;;16.90;99.90;;;;;;4956808;29;20064;-74
2022/09/07 05:36:28;;;;;;;101.73;46.37;;;17.00;99.90;;;;;;4956295;29;20047;-74
2022/09/07 05:38:55;;;;;;;95.95;45.70;;;16.90;99.90;;;;;;4923781;29;20051;-75
2022/09/07 05:41:21;;;;;;;;;;;16.90;99.90;;;;;;4957319;28;20076;-75
2022/09/07 05:43:47;;;;;;;;;;;17.00;99.90;;;;;;4957489;29;19926;-74
2022/09/07 05:46:14;;;;;;;101.00;43.47;;;17.00;99.90;;;;;;4956605;29;19933;-76
2022/09/07 05:48:41;;;;;;;104.15;45.42;;;17.10;99.90;;;;;;4923836;29;20047;-76
2022/09/07 05:51:07;;;;;;;103.95;46.03;;;17.10;99.90;;;;;;4939255;29;20050;-75
2022/09/07 05:53:34;;;;;;;105.85;45.58;;;17.10;99.90;;;;;;4956387;28;20051;-75
2022/09/07 05:56:00;;;;;;;101.90;44.45;;;17.10;99.90;;;;;;4922579;29;20073;-74
2022/09/07 05:58:27;;;;;;;101.97;43.43;;;17.10;99.90;;;;;;4939969;29;20106;-76
2022/09/07 06:01:04;;;;;;;97.13;42.15;;;17.20;99.90;;;;;;4908676;29;20094;-74
2022/09/07 06:03:30;;;;;;;104.75;43.97;;;17.20;99.90;;;;;;4956332;28;20097;-75
2022/09/07 06:06:17;;;;;;;95.50;42.38;;;17.20;99.90;;;;;;4955381;28;20061;-74
2022/09/07 06:08:47;;;;;;;105.32;44.92;;;17.20;99.90;;;;;;4924043;29;20122;-83
2022/09/07 06:11:19;;;;;;;108.97;44.20;;;17.30;99.90;;;;;;4938846;29;20130;-76
2022/09/07 06:13:45;;;;;;;109.63;46.97;;;17.30;99.90;;;;;;4956305;29;20110;-83
2022/09/07 06:16:12;;;;;;;103.63;42.78;;;17.30;99.90;;;;;;4938952;29;20138;-74
2022/09/07 06:18:41;;;;;;;93.40;42.38;;;17.30;99.90;;;;;;4939120;29;20061;-75
2022/09/07 06:21:09;;;;;;;103.80;43.20;;;17.30;99.90;;;;;;4956049;29;20058;-75
2022/09/07 06:23:37;;;;;;;99.85;43.00;;;17.40;99.90;;;;;;4955983;28;20054;-77
2022/09/07 06:26:03;;;;;;;99.63;42.35;;;17.40;99.90;;;;;;4956116;29;20054;-76
2022/09/07 06:28:40;;;;;;;98.18;43.80;;;17.40;99.90;;;;;;4955620;29;20051;-78
2022/09/07 06:31:15;;;;;;;98.38;42.83;;;17.50;99.90;;;;;;4922431;29;20039;-75
2022/09/07 06:33:43;;;;;;;91.47;38.75;;;17.50;99.90;;;;;;4955298;28;20087;-80
2022/09/07 06:36:18;;;;;;;83.10;35.58;;;17.50;99.90;;;;;;4954165;28;20422;-74
2022/09/07 06:38:48;;;;;;;76.50;33.65;;;17.60;99.90;;;;;;4938697;29;20066;-82
2022/09/07 06:41:20;;;;;;;87.38;33.83;;;17.60;99.90;;;;;;4956084;29;20043;-75
2022/09/07 06:43:47;;;;;;;78.88;33.90;;;17.60;99.90;;;;;;4955168;29;20145;-77
2022/09/07 06:46:13;;;;;;;78.82;31.95;;;17.50;99.90;;;;;;4955504;29;20055;-76
2022/09/07 06:48:39;;;;;;;77.70;32.55;;;17.50;99.90;;;;;;4938043;29;20571;-76
2022/09/07 06:51:14;;;;;;;73.17;30.80;;;17.60;99.90;;;;;;4955248;29;20107;-76
2022/09/07 06:53:41;;;;;;;86.82;34.67;;;17.40;99.90;;;;;;4956159;28;20078;-76
2022/09/07 06:56:10;;;;;;;77.50;31.95;;;17.40;99.90;;;;;;4922477;29;20251;-76
2022/09/07 06:58:36;;;;;;;83.70;31.63;;;17.40;99.90;;;;;;4955435;29;20051;-76
2022/09/07 07:01:11;;;;;;;83.78;32.65;;;17.40;99.90;;;;;;4922151;29;20066;-73
2022/09/07 07:03:39;;;;;;;75.82;31.38;;;17.40;99.90;;;;;;4955869;29;20106;-75
2022/09/07 07:06:05;;;;;;;80.30;31.50;;;17.40;99.90;;;;;;4937093;29;20043;-75
2022/09/07 07:08:31;;;;;;;82.72;34.60;;;17.40;99.90;;;;;;4937672;29;20055;-76
2022/09/07 07:11:02;;;;;;;81.50;34.93;;;17.40;99.90;;;;;;4955202;29;20186;-75
2022/09/07 07:13:28;;;;;;;87.38;34.80;;;17.40;99.90;;;;;;4922622;29;20043;-77
2022/09/07 07:16:04;;;;;;;79.13;33.00;;;17.40;99.90;;;;;;4938482;29;20054;-76
2022/09/07 07:18:31;;;;;;;82.03;33.45;;;17.40;99.90;;;;;;4937577;29;20050;-75
2022/09/07 07:20:57;;;;;;;;;;;17.40;99.90;;;;;;4938333;29;20055;-75
2022/09/07 07:23:23;;;;;;;80.23;32.90;;;17.40;99.90;;;;;;4954013;29;19939;-74
2022/09/07 07:25:49;;;;;;;87.30;35.93;;;17.40;99.90;;;;;;4922695;29;20134;-76
2022/09/07 07:28:14;;;;;;;86.27;34.93;;;17.40;99.90;;;;;;4922260;29;20051;-76
2022/09/07 07:30:40;;;;;;;89.20;35.30;;;17.50;99.90;;;;;;4954749;29;20047;-77
2022/09/07 07:35:50;;;;;;;87.28;36.85;;;17.60;99.90;;;;;;4940718;29;20063;-76
2022/09/07 07:38:16;;;;;;;87.27;36.90;;;17.70;99.90;;;;;;4954743;29;20432;-76
2022/09/07 07:40:41;;;;;;;86.60;35.73;;;17.70;99.90;;;;;;4922549;29;20047;-77
2022/09/07 07:43:07;;;;;;;91.30;35.70;;;17.70;99.90;;;;;;4955137;29;20073;-75
2022/09/07 07:45:33;;;;;;;87.17;37.17;;;17.80;99.90;;;;;;4937412;29;20047;-76
2022/09/07 07:47:58;;;;;;;84.60;35.43;;;17.80;99.90;;;;;;4954481;29;20098;-73
2022/09/07 07:50:24;;;;;;;89.70;37.43;;;17.90;99.90;;;;;;4936913;28;20488;-75
2022/09/07 07:52:50;;;;;;;82.23;35.83;;;18.00;99.90;;;;;;4954315;29;20050;-76
2022/09/07 07:55:16;;;;;;;86.77;34.70;;;18.10;99.90;;;;;;4922046;29;20109;-74
2022/09/07 07:57:41;;;;;;;84.00;35.50;;;18.10;99.90;;;;;;4937068;29;20380;-75
2022/09/07 08:00:08;;;;;;;79.93;33.47;;;18.20;99.90;;;;;;4954303;29;20456;-75
2022/09/07 08:02:33;;;;;;;74.53;32.22;;;18.20;99.90;;;;;;4954187;29;20051;-78
2022/09/07 08:05:00;;;;;;;80.20;31.73;;;18.30;99.90;;;;;;4954208;29;20058;-76
2022/09/07 08:07:26;;;;;;;;;;;18.40;99.90;;;;;;4955122;29;20110;-74
2022/09/07 08:09:52;;;;;;;76.17;30.47;;;18.50;99.90;;;;;;4936955;29;20434;-75
2022/09/07 08:12:19;;;;;;;72.03;29.33;;;18.60;99.90;;;;;;4921294;29;20047;-76
2022/09/07 08:14:47;;;;;;;76.68;31.08;;;18.70;99.90;;;;;;4954993;28;20095;-82
2022/09/07 08:17:15;;;;;;;71.40;29.13;;;18.70;99.90;;;;;;4937216;28;20069;-75
2022/09/07 08:19:41;;;;;;;65.00;29.02;;;18.80;99.90;;;;;;4925635;29;20138;-77
2022/09/07 08:22:09;;;;;;;70.53;28.67;;;18.90;99.90;;;;;;4925329;29;20138;-76
2022/09/07 08:24:35;;;;;;;62.28;29.13;;;19.10;99.90;;;;;;4941230;29;20089;-76
2022/09/07 08:27:01;;;;;;;58.57;27.10;;;19.30;99.90;;;;;;4957945;29;20087;-86
2022/09/07 08:29:27;;;;;;;58.07;27.00;;;19.50;99.90;;;;;;4941079;29;20047;-77
2022/09/07 08:31:52;;;;;;;65.50;28.27;;;19.70;99.90;;;;;;4958237;29;20424;-76
2022/09/07 08:34:19;;;;;;;59.53;27.87;;;19.80;99.90;;;;;;4957402;29;20352;-76
2022/09/07 08:36:44;;;;;;;59.38;27.63;;;19.80;99.90;;;;;;4940357;29;20043;-76
2022/09/07 08:39:10;;;;;;;66.20;27.73;;;19.80;99.90;;;;;;4957812;29;20127;-76
2022/09/07 08:41:54;;;;;;;60.40;27.17;;;19.80;99.90;;;;;;4957820;29;20036;-76
2022/09/07 08:44:43;;;;;;;57.63;25.40;;;19.70;99.90;;;;;;4957629;29;20520;-76
2022/09/07 08:47:27;;;;;;;61.92;26.73;;;19.80;99.90;;;;;;4905917;29;20145;-77
2022/09/07 08:50:15;;;;;;;62.45;27.40;;;20.00;99.90;;;;;;4940329;29;20059;-81
2022/09/07 08:52:47;;;;;;;58.05;27.75;;;20.00;99.90;;;;;;4957176;29;20070;-75
2022/09/07 08:55:45;;;;;;;66.35;29.60;;;20.00;99.90;;;;;;4940188;29;20055;-77
2022/09/07 08:58:15;;;;;;;63.83;29.15;;;20.10;99.90;;;;;;4909683;29;20077;-77
2022/09/07 09:00:40;;;;;;;56.78;26.85;;;20.00;99.90;;;;;;4940320;29;20113;-77
2022/09/07 09:03:40;;;;;;;56.57;26.83;;;20.10;99.90;;;;;;4939905;29;20050;-76
2022/09/07 09:06:25;;;;;;;56.80;27.05;;;20.30;99.90;;;;;;4938064;29;20055;-77
2022/09/07 09:09:06;;;;;;;50.47;25.25;;;20.40;99.90;;;;;;4940173;29;20118;-77
2022/09/07 09:12:11;;;;;;;51.75;26.33;;;20.30;99.90;;;;;;4957312;29;20047;-77
2022/09/07 09:15:02;;;;;;;52.42;25.20;;;20.40;99.90;;;;;;4920186;29;20491;-77
2022/09/07 09:17:47;;;;;;;58.03;26.02;;;20.60;99.90;;;;;;4939799;29;20567;-76
2022/09/07 09:20:27;;;;;;;49.50;24.10;;;20.80;99.90;;;;;;4957561;29;20055;-76
2022/09/07 09:23:00;;;;;;;51.35;25.20;;;21.00;99.90;;;;;;4957361;29;20050;-78
2022/09/07 09:25:32;;;;;;;51.75;24.10;;;21.10;99.90;;;;;;4939562;29;20053;-77
2022/09/07 09:27:59;;;;;;;49.72;24.42;;;21.20;99.90;;;;;;4957177;29;20439;-78
2022/09/07 09:30:26;;;;;;;50.05;24.15;;;21.30;99.90;;;;;;4956209;28;20373;-76
2022/09/07 09:33:22;;;;;;;47.33;23.23;;;21.30;99.90;;;;;;4956917;29;20166;-79
2022/09/07 09:35:51;;;;;;;47.40;23.63;;;21.40;99.90;;;;;;4957024;29;20098;-79
2022/09/07 09:38:30;;;;;;;47.38;22.80;;;21.30;99.90;;;;;;4939643;29;20105;-77
2022/09/07 09:41:01;;;;;;;44.58;23.02;;;21.10;99.90;;;;;;4956400;29;20058;-77
2022/09/07 09:43:37;;;;;;;45.78;22.80;;;21.30;99.90;;;;;;4956215;29;20102;-76
2022/09/07 09:46:11;;;;;;;46.05;22.67;;;21.50;99.90;;;;;;4940370;29;20083;-75
2022/09/07 09:48:40;;;;;;;40.85;20.90;;;21.50;99.90;;;;;;4940918;29;20058;-78
2022/09/07 09:51:07;;;;;;;37.83;17.67;;;21.70;99.90;;;;;;4939669;29;20082;-82
2022/09/07 09:53:41;;;;;;;37.67;18.58;;;21.70;99.90;;;;;;4955438;28;20055;-77
2022/09/07 09:56:07;;;;;;;33.00;18.02;;;21.60;99.90;;;;;;4956635;29;20051;-83
2022/09/07 09:58:36;;;;;;;35.60;17.63;;;21.60;99.90;;;;;;4939930;29;20043;-78
2022/09/07 10:01:34;;;;;;;38.33;16.92;;;21.60;99.90;;;;;;4939464;29;20044;-76
2022/09/07 10:04:24;;;;;;;38.13;18.23;;;21.70;99.90;;;;;;4952334;29;20400;-78
2022/09/07 10:06:55;;;;;;;31.20;16.33;;;21.50;99.90;;;;;;4940406;29;20527;-78
2022/09/07 10:09:25;;;;;;;28.02;16.02;;;21.50;99.90;;;;;;4956879;29;20058;-78
2022/09/07 10:12:01;;;;;;;26.60;14.30;;;21.60;99.90;;;;;;4939454;29;20460;-79
2022/09/07 10:14:43;;;;;;;32.47;15.82;;;21.80;99.90;;;;;;4923613;29;20046;-78
2022/09/07 10:17:12;;;;;;;29.50;15.85;;;21.90;99.90;;;;;;4957401;29;20090;-85
2022/09/07 10:19:40;;;;;;;34.05;16.25;;;21.90;99.90;;;;;;4956693;29;20043;-76
2022/09/07 10:22:35;;;;;;;29.10;14.85;;;22.00;99.90;;;;;;4957303;29;20079;-77
2022/09/07 10:25:26;;;;;;;27.83;14.43;;;22.20;99.90;;;;;;4956527;28;20061;-76
2022/09/07 10:28:20;;;;;;;26.13;13.93;;;22.40;99.90;;;;;;4951618;28;20090;-76
2022/09/07 10:31:09;;;;;;;24.75;13.77;;;22.40;99.90;;;;;;4956387;29;20078;-77
2022/09/07 10:33:37;;;;;;;26.52;14.80;;;22.50;99.90;;;;;;4943959;29;20047;-76
2022/09/07 10:36:30;;;;;;;25.77;14.13;;;22.60;99.90;;;;;;4958948;29;20058;-77
2022/09/07 10:39:02;;;;;;;26.10;13.43;;;22.60;99.90;;;;;;4947970;29;20035;-82
2022/09/07 10:41:51;;;;;;;26.45;14.93;;;22.60;99.90;;;;;;4933063;29;20186;-77
2022/09/07 10:44:59;;;;;;;25.13;15.20;;;22.60;99.90;;;;;;4963572;29;20152;-76
2022/09/07 10:47:36;;;;;;;30.63;14.93;;;22.70;99.90;;;;;;4966015;29;20051;-79
2022/09/07 10:50:04;;;;;;;24.30;14.32;;;22.80;99.90;;;;;;4948232;29;20061;-77
2022/09/07 10:52:51;;;;;;;27.05;14.07;;;23.00;99.90;;;;;;4965497;29;20053;-79
2022/09/07 10:55:27;;;;;;;23.30;12.73;;;23.10;99.90;;;;;;4946651;29;20059;-77
2022/09/07 10:58:10;;;;;;;26.63;14.15;;;23.00;99.90;;;;;;4944748;28;20102;-77
2022/09/07 11:00:57;;;;;;;27.88;14.65;;;23.10;99.90;;;;;;4942918;29;20130;-78
2022/09/07 11:03:55;;;;;;;29.30;16.40;;;23.20;99.90;;;;;;4927197;29;20047;-77
2022/09/07 11:06:28;;;;;;;30.23;15.82;;;22.60;99.90;;;;;;4938839;29;20063;-79
2022/09/07 11:09:31;;;;;;;27.00;15.02;;;22.60;99.90;;;;;;4957760;29;20473;-81
2022/09/07 11:12:33;;;;;;;25.48;14.82;;;22.70;99.90;;;;;;4956188;29;20055;-81
2022/09/07 11:15:22;;;;;;;25.13;12.90;;;23.00;99.90;;;;;;4945232;29;20408;-75
2022/09/07 11:17:53;;;;;;;19.90;12.18;;;23.10;99.90;;;;;;4955994;29;20047;-77
2022/09/07 11:20:30;;;;;;;27.92;15.70;;;23.20;99.90;;;;;;4955245;29;20138;-76
2022/09/07 11:23:45;;;;;;;22.33;12.82;;;23.40;99.90;;;;;;4938131;29;20372;-75
2022/09/07 11:26:37;;;;;;;28.00;15.30;;;23.30;99.90;;;;;;4904000;29;20410;-76
2022/09/07 11:29:15;;;;;;;25.70;15.25;;;23.00;99.90;;;;;;4938841;29;20047;-76
2022/09/07 11:31:44;;;;;;;23.50;13.50;;;23.10;99.90;;;;;;4937928;29;20412;-77
2022/09/07 11:34:37;;;;;;;23.65;13.88;;;22.80;99.90;;;;;;4938680;29;20055;-76
2022/09/07 11:37:12;;;;;;;22.88;13.98;;;23.00;99.90;;;;;;4954700;28;20065;-76
2022/09/07 11:39:54;;;;;;;22.17;13.10;;;22.90;99.90;;;;;;4923003;29;20043;-76
2022/09/07 11:42:36;;;;;;;22.17;12.85;;;22.60;99.90;;;;;;4955001;29;20059;-77
2022/09/07 11:45:30;;;;;;;22.33;12.68;;;22.50;99.90;;;;;;4937941;29;20491;-76
2022/09/07 11:48:14;;;;;;;25.25;12.52;;;22.10;99.90;;;;;;4922408;29;20380;-76
2022/09/07 11:50:46;;;;;;;22.55;12.50;;;22.10;99.90;;;;;;4937963;29;20141;-77
2022/09/07 11:53:20;;;;;;;19.50;12.20;;;22.00;99.90;;;;;;4937747;29;20047;-78
2022/09/07 11:55:55;;;;;;;18.02;11.88;;;22.00;99.90;;;;;;4954634;29;20408;-76
2022/09/07 11:58:42;;;;;;;22.27;12.57;;;21.90;99.90;;;;;;4937887;29;20043;-76
2022/09/07 12:01:31;;;;;;;20.38;12.48;;;21.80;99.90;;;;;;4938911;29;20483;-76
2022/09/07 12:04:00;;;;;;;22.98;12.18;;;21.80;99.90;;;;;;4955513;29;20051;-78
2022/09/07 12:07:05;;;;;;;23.10;12.77;;;21.80;99.90;;;;;;4955112;29;20094;-75
2022/09/07 12:09:55;;;;;;;23.27;13.05;;;21.90;99.90;;;;;;4938575;29;20059;-75
2022/09/07 12:12:58;;;;;;;24.67;14.00;;;22.00;99.90;;;;;;4955229;29;20093;-76
2022/09/07 12:15:50;;;;;;;27.50;13.68;;;22.10;99.90;;;;;;4937400;29;20047;-74
2022/09/07 12:18:25;;;;;;;20.63;13.43;;;22.20;99.90;;;;;;4954604;29;20062;-75
2022/09/07 12:20:51;;;;;;;23.73;12.98;;;22.40;99.90;;;;;;4937318;29;20058;-75
2022/09/07 12:23:19;;;;;;;24.03;12.07;;;22.50;99.90;;;;;;4937490;29;20047;-74
2022/09/07 12:25:50;;;;;;;23.48;13.40;;;22.80;99.90;;;;;;4938223;29;20295;-75
2022/09/07 12:28:22;;;;;;;19.73;11.57;;;22.70;99.90;;;;;;4955021;29;20055;-75
2022/09/07 12:31:34;;;;;;;19.35;11.70;;;22.80;99.90;;;;;;4937371;29;20067;-75
2022/09/07 12:34:32;;;;;;;21.73;14.40;;;23.00;99.90;;;;;;4954051;28;20051;-74
2022/09/07 12:37:24;;;;;;;23.15;13.60;;;23.00;99.90;;;;;;4905980;29;20051;-78
2022/09/07 12:40:10;;;;;;;25.45;14.65;;;22.90;99.90;;;;;;4936884;29;20051;-78
2022/09/07 12:42:36;;;;;;;22.30;13.10;;;23.00;99.90;;;;;;4939856;29;20436;-76
2022/09/07 12:45:29;;;;;;;22.23;12.63;;;22.90;99.90;;;;;;4954609;29;20144;-75
2022/09/07 12:48:00;;;;;;;23.75;13.00;;;22.70;99.90;;;;;;4937270;29;20299;-74
2022/09/07 12:50:52;;;;;;;20.88;12.60;;;22.60;99.90;;;;;;4921986;29;20070;-75
2022/09/07 12:53:33;;;;;;;19.30;11.70;;;22.70;99.90;;;;;;4908106;29;20066;-74
2022/09/07 12:56:15;;;;;;;18.85;11.25;;;22.80;99.90;;;;;;4937890;29;20098;-74
2022/09/07 12:59:05;;;;;;;20.38;10.85;;;22.90;99.90;;;;;;4954707;29;20110;-74
2022/09/07 13:01:40;;;;;;;21.23;12.73;;;23.00;99.90;;;;;;4954535;29;20123;-75